Aérodrome :
LOGIN :

S'inscrire | Disclaimer

   EN    FR    IT 

 










Légende :    VFR   VFR Marginal   IFR   IFR Intensif   IFR Très Intensif
Visi : 
Plafond : 
>= 8 km
>= 3000ft
5 à 8 km
1000 à 3000 ft
1500m à 5 km
500 à 1000 ft
800 à 1500m
200 à 500 ft
< 800m
< 200 ft
Symboles :   Orages  Brouillard  Fortes neiges  Fortes précipitations  Vent > 20 kt
SIGMETs :   Divers  Orages  Givrage  Turbulence  Onde Orograph.  Cendres Volcan.







- Altitude de l'aérodrome : 82 ft
- Code IATA : QIE
- Voir les cartes d'approche


LFMI - Istres

DERNIER METAR :
  • 131630Z AUTO 09005KT 9999 FEW047 BKN098 BKN240 07/01 Q1018 NOSIG

METARs EXPIRÉS :
  • 131600Z AUTO 08005KT CAVOK 07/01 Q1018 NOSIG
  • 131530Z AUTO 09005KT 9999 -RA NSC 08/02 Q1019 NOSIG
  • 131500Z AUTO 09005KT 9999 FEW037 BKN100 OVC130 09/01 Q1019 NOSIG
  • 131430Z AUTO 23004KT 180V270 CAVOK 11/01 Q1019 NOSIG
  • 131400Z AUTO 23005KT 200V270 CAVOK 11/01 Q1019 NOSIG

TAF TAF LFMI
Valide du 13 à 15h jusqu'au 14 à 15h UTC


131400Z 1315/1415 VRB05KT CAVOK
BECMG 1315/1316 BKN050
BECMG 1318/1319 BKN028
TEMPO 1321/1324 -RA
BECMG 1400/1402 CAVOK
BECMG 1403/1404 32006KT
BECMG 1413/1414 25010KT
Pas de NOTAMs connus pour ce terrain.
2 SIGMETs publiés pour la FIR Marseille (LFMM) :
 
Onde orographique forte
LFMM SIGMET 4 VALID 131700/132000 LFPW
LFMM MARSEILLE FIR/UIR SEV MTW FCST E OF E00900 SFC/FL320 STNR NC=
Onde orographique forte
LFMM SIGMET 3 VALID 131300/131700 LFPW
LFMM MARSEILLE FIR/UIR SEV MTW FCST E OF E00900 SFC/FL320 STNR NC=



MET'MAP, la Météo Aéronautique d'un coup d'oeil ! - Copyright ORBIFLY Décembre 2007 - Disclaimer

ORBIFLY MET'MAP TEAM :

Programmation & Développement : Alexandra Zaïnal
Conception & Développement : Baudouin d'Aumeries
Co-Programmation & Développement : Marc-Olivier Méhu
Soutien technique & logistique : Manuel Goepfert

Contact : metmap@orbifly.com




SOURCES & CREDITS :

   NOAA